createdAt,value
2022-07-29T00:09:52.057Z,16.70
2022-07-29T00:12:32.126Z,16.70
2022-07-29T00:14:59.541Z,16.60
2022-07-29T00:17:26.606Z,16.60
2022-07-29T00:19:54.397Z,16.60
2022-07-29T00:22:21.592Z,16.60
2022-07-29T00:24:49.481Z,16.60
2022-07-29T00:27:16.602Z,16.60
2022-07-29T00:29:48.421Z,16.60
2022-07-29T00:32:15.466Z,16.60
2022-07-29T00:35:01.333Z,16.70
2022-07-29T00:37:31.144Z,16.70
2022-07-29T00:39:59.429Z,16.70
2022-07-29T00:42:26.421Z,16.70
2022-07-29T00:44:53.722Z,16.70
2022-07-29T00:47:21.025Z,16.70
2022-07-29T00:49:48.054Z,16.80
2022-07-29T00:52:17.022Z,16.80
2022-07-29T00:54:45.477Z,16.80
2022-07-29T00:57:12.814Z,16.80
2022-07-29T00:59:40.009Z,16.80
2022-07-29T01:02:07.031Z,16.90
2022-07-29T01:04:35.269Z,16.90
2022-07-29T01:07:03.282Z,16.90
2022-07-29T01:09:45.523Z,16.90
2022-07-29T01:12:14.288Z,16.90
2022-07-29T01:14:41.776Z,16.90
2022-07-29T01:17:31.613Z,16.90
2022-07-29T01:20:04.660Z,16.90
2022-07-29T01:22:44.005Z,16.90
2022-07-29T01:25:36.532Z,16.90
2022-07-29T01:28:28.969Z,16.90
2022-07-29T01:33:51.418Z,16.90
2022-07-29T01:36:32.658Z,16.90
2022-07-29T01:39:10.075Z,17.00
2022-07-29T01:41:39.126Z,16.90
2022-07-29T01:44:24.983Z,16.90
2022-07-29T01:46:55.287Z,16.90
2022-07-29T01:49:25.832Z,16.90
2022-07-29T01:52:01.632Z,16.90
2022-07-29T01:54:47.093Z,16.90
2022-07-29T01:57:15.443Z,16.90
2022-07-29T01:59:42.397Z,16.90
2022-07-29T02:02:09.815Z,16.80
2022-07-29T02:04:37.804Z,16.80
2022-07-29T02:07:06.980Z,16.80
2022-07-29T02:09:35.984Z,16.80
2022-07-29T02:12:03.814Z,16.80
2022-07-29T02:14:38.010Z,16.70
2022-07-29T02:17:05.052Z,16.70
2022-07-29T02:19:33.668Z,16.70
2022-07-29T02:22:00.944Z,16.70
2022-07-29T02:24:28.277Z,16.70
2022-07-29T02:26:56.534Z,16.60
2022-07-29T02:29:24.815Z,16.60
2022-07-29T02:31:52.294Z,16.60
2022-07-29T02:34:20.152Z,16.50
2022-07-29T02:36:49.466Z,16.40
2022-07-29T02:39:16.881Z,16.40
2022-07-29T02:41:49.552Z,16.30
2022-07-29T02:44:21.009Z,16.20
2022-07-29T02:46:51.392Z,16.20
2022-07-29T02:49:25.105Z,16.10
2022-07-29T02:52:33.378Z,16.00
2022-07-29T02:55:20.362Z,16.00
2022-07-29T02:58:02.198Z,15.90
2022-07-29T03:00:30.356Z,15.80
2022-07-29T03:03:00.994Z,15.70
2022-07-29T03:05:28.272Z,15.60
2022-07-29T03:08:13.618Z,15.60
2022-07-29T03:10:41.308Z,15.50
2022-07-29T03:13:08.948Z,15.50
2022-07-29T03:15:36.329Z,15.40
2022-07-29T03:18:04.239Z,15.40
2022-07-29T03:20:32.005Z,15.30
2022-07-29T03:22:59.186Z,15.30
2022-07-29T03:25:28.410Z,15.30
2022-07-29T03:27:55.608Z,15.20
2022-07-29T03:30:23.550Z,15.20
2022-07-29T03:32:55.076Z,15.10
2022-07-29T03:35:23.955Z,15.10
2022-07-29T03:37:51.407Z,15.10
2022-07-29T03:40:22.533Z,15.00
2022-07-29T03:42:52.706Z,15.00
2022-07-29T03:45:20.300Z,14.80
2022-07-29T03:47:52.201Z,14.70
2022-07-29T03:50:21.867Z,14.70
2022-07-29T03:52:48.995Z,14.60
2022-07-29T03:55:16.200Z,14.60
2022-07-29T03:57:43.507Z,14.60
2022-07-29T04:00:22.472Z,14.60
2022-07-29T04:02:50.107Z,14.60
2022-07-29T04:05:18.728Z,14.60
2022-07-29T04:07:46.480Z,14.50
2022-07-29T04:10:18.080Z,14.50
2022-07-29T04:12:58.590Z,14.50
2022-07-29T04:15:31.764Z,14.40
2022-07-29T04:18:00.205Z,14.40
2022-07-29T04:20:29.483Z,14.40
2022-07-29T04:22:56.632Z,14.40
2022-07-29T04:25:24.519Z,14.40
2022-07-29T04:28:04.125Z,14.50
2022-07-29T04:30:31.832Z,14.40
2022-07-29T04:32:58.959Z,14.40
2022-07-29T04:35:26.017Z,14.40
2022-07-29T04:37:52.886Z,14.40
2022-07-29T04:40:20.190Z,14.40
2022-07-29T04:42:47.935Z,14.50
2022-07-29T04:45:16.613Z,14.50
2022-07-29T04:47:52.492Z,14.40
2022-07-29T04:50:19.779Z,14.40
2022-07-29T04:52:47.247Z,14.40
2022-07-29T04:55:14.885Z,14.40
2022-07-29T04:57:45.659Z,14.40
2022-07-29T05:00:13.427Z,14.40
2022-07-29T05:02:40.955Z,14.40
2022-07-29T05:05:08.901Z,14.50
2022-07-29T05:07:36.038Z,14.60
2022-07-29T05:10:03.118Z,14.60
2022-07-29T05:12:30.490Z,14.60
2022-07-29T05:14:57.900Z,14.70
2022-07-29T05:17:25.247Z,14.80
2022-07-29T05:19:52.563Z,14.80
2022-07-29T05:22:20.593Z,14.90
2022-07-29T05:24:48.332Z,15.00
2022-07-29T05:27:15.432Z,15.10
2022-07-29T05:29:45.169Z,15.10
2022-07-29T05:32:13.585Z,15.10
2022-07-29T05:34:50.834Z,15.20
2022-07-29T05:37:20.411Z,15.30
2022-07-29T05:39:50.493Z,15.40
2022-07-29T05:42:23.837Z,15.50
2022-07-29T05:44:50.873Z,15.60
2022-07-29T05:47:17.938Z,15.70
2022-07-29T05:49:44.972Z,15.70
2022-07-29T05:52:12.077Z,15.90
2022-07-29T05:54:39.272Z,16.00
2022-07-29T05:57:06.513Z,16.20
2022-07-29T05:59:37.493Z,16.40
2022-07-29T06:02:06.269Z,16.50
2022-07-29T06:04:34.817Z,16.60
2022-07-29T06:07:02.912Z,16.70
2022-07-29T06:09:30.258Z,16.80
2022-07-29T06:11:57.304Z,17.00
2022-07-29T06:14:24.217Z,17.10
2022-07-29T06:16:51.267Z,17.30
2022-07-29T06:19:18.692Z,17.40
2022-07-29T06:21:47.888Z,17.60
2022-07-29T06:24:18.030Z,17.70
2022-07-29T06:26:51.023Z,17.80
2022-07-29T06:29:18.320Z,17.90
2022-07-29T06:31:45.278Z,18.00
2022-07-29T06:34:12.892Z,18.10
2022-07-29T06:36:41.273Z,18.10
2022-07-29T06:39:12.177Z,18.20
2022-07-29T06:41:39.601Z,18.30
2022-07-29T06:44:06.939Z,18.50
2022-07-29T06:46:34.356Z,18.60
2022-07-29T06:49:05.964Z,18.70
2022-07-29T06:51:35.684Z,18.90
2022-07-29T06:54:08.769Z,19.00
2022-07-29T06:56:52.914Z,19.10
2022-07-29T06:59:30.755Z,19.30
2022-07-29T07:02:01.746Z,19.30
2022-07-29T07:04:49.223Z,19.50
2022-07-29T07:07:17.053Z,19.60
2022-07-29T07:09:45.385Z,19.70
2022-07-29T07:12:12.895Z,19.80
2022-07-29T07:14:42.075Z,20.00
2022-07-29T07:17:09.212Z,20.00
2022-07-29T07:19:36.402Z,20.00
2022-07-29T07:22:05.957Z,20.00
2022-07-29T07:24:35.683Z,19.90
2022-07-29T07:27:07.701Z,19.70
2022-07-29T07:29:34.909Z,19.70
2022-07-29T07:32:02.152Z,19.70
2022-07-29T07:34:31.758Z,19.60
2022-07-29T07:36:59.195Z,19.50
2022-07-29T07:39:27.261Z,19.40
2022-07-29T07:41:54.388Z,19.40
2022-07-29T07:44:25.585Z,19.30
2022-07-29T07:46:52.766Z,19.30
2022-07-29T07:49:20.178Z,19.30
2022-07-29T07:51:57.090Z,19.40
2022-07-29T07:54:24.095Z,19.40
2022-07-29T07:56:55.291Z,19.40
2022-07-29T07:59:22.551Z,19.40
2022-07-29T08:01:56.265Z,19.50
2022-07-29T08:04:28.662Z,19.50
2022-07-29T08:06:57.148Z,19.60
2022-07-29T08:09:30.896Z,19.70
2022-07-29T08:12:06.636Z,19.70
2022-07-29T08:14:34.471Z,19.80
2022-07-29T08:22:25.114Z,19.80
2022-07-29T08:24:55.702Z,19.90
2022-07-29T08:27:42.378Z,19.90
2022-07-29T08:30:11.574Z,19.90
2022-07-29T08:32:55.123Z,20.00
2022-07-29T08:35:23.620Z,19.90
2022-07-29T08:37:50.417Z,20.00
2022-07-29T08:40:17.349Z,20.00
2022-07-29T08:42:44.223Z,20.10
2022-07-29T08:45:11.320Z,20.00
2022-07-29T08:47:41.825Z,20.00
2022-07-29T08:50:09.584Z,20.00
2022-07-29T08:52:42.751Z,20.10
2022-07-29T08:55:10.101Z,20.10
2022-07-29T08:57:37.334Z,20.10
2022-07-29T09:00:11.565Z,20.10
2022-07-29T09:02:43.255Z,20.20
2022-07-29T09:05:13.677Z,20.20
2022-07-29T09:07:40.628Z,20.20
2022-07-29T09:10:07.930Z,20.30
2022-07-29T09:12:38.014Z,20.40
2022-07-29T09:15:05.330Z,20.50
2022-07-29T09:18:01.680Z,20.50
2022-07-29T09:20:48.490Z,20.60
2022-07-29T09:23:23.436Z,20.70
2022-07-29T09:25:51.553Z,20.70
2022-07-29T09:28:18.729Z,20.70
2022-07-29T09:31:03.394Z,20.80
2022-07-29T09:33:35.563Z,20.90
2022-07-29T09:36:09.435Z,21.00
2022-07-29T09:38:37.596Z,21.00
2022-07-29T09:41:06.125Z,21.00
2022-07-29T09:43:33.758Z,21.00
2022-07-29T09:46:16.778Z,21.10
2022-07-29T09:48:43.580Z,21.10
2022-07-29T09:51:24.259Z,21.20
2022-07-29T09:53:55.333Z,21.20
2022-07-29T09:56:26.406Z,21.30
2022-07-29T09:59:06.705Z,21.40
2022-07-29T10:01:33.382Z,21.50
2022-07-29T10:04:00.131Z,21.60
2022-07-29T10:06:26.967Z,21.60
2022-07-29T10:08:53.935Z,21.70
2022-07-29T10:11:20.843Z,21.80
2022-07-29T10:13:48.922Z,21.90
2022-07-29T10:16:16.539Z,22.00
2022-07-29T10:18:44.598Z,22.10
2022-07-29T10:21:35.635Z,22.20
2022-07-29T10:23:59.547Z,22.30
2022-07-29T10:26:28.964Z,22.30
2022-07-29T10:28:56.423Z,22.40
2022-07-29T10:31:30.820Z,22.50
2022-07-29T10:34:18.163Z,22.60
2022-07-29T10:37:03.518Z,22.60
2022-07-29T10:39:54.344Z,22.70
2022-07-29T10:42:33.395Z,22.80
2022-07-29T10:45:01.221Z,22.90
2022-07-29T10:47:28.263Z,22.90
2022-07-29T10:49:59.478Z,22.90
2022-07-29T10:52:50.315Z,22.90
2022-07-29T10:55:39.397Z,22.90
2022-07-29T10:58:19.894Z,22.90
2022-07-29T11:00:51.027Z,22.90
2022-07-29T11:03:53.734Z,22.90
2022-07-29T11:06:28.098Z,23.10
2022-07-29T11:09:34.800Z,23.30
2022-07-29T11:12:39.677Z,23.40
2022-07-29T11:15:13.777Z,23.60
2022-07-29T11:17:59.439Z,23.70
2022-07-29T11:20:40.067Z,23.90
2022-07-29T11:23:33.678Z,24.00
2022-07-29T11:26:14.517Z,24.10
2022-07-29T11:28:51.556Z,24.30
2022-07-29T11:31:51.668Z,24.50
2022-07-29T11:34:30.844Z,24.60
2022-07-29T11:37:13.634Z,24.70
2022-07-29T11:39:41.702Z,24.80
2022-07-29T11:42:17.697Z,25.10
2022-07-29T11:44:57.359Z,25.40
2022-07-29T11:47:25.671Z,25.80
2022-07-29T11:49:55.285Z,26.20
2022-07-29T11:52:49.452Z,26.40
2022-07-29T12:08:41.636Z,27.10
2022-07-29T12:11:16.899Z,27.70
2022-07-29T12:13:43.627Z,28.10
2022-07-29T12:16:14.653Z,28.30
2022-07-29T12:18:41.648Z,28.50
2022-07-29T12:21:09.268Z,28.70
2022-07-29T12:23:39.170Z,28.50
2022-07-29T12:26:07.710Z,28.80
2022-07-29T12:28:39.415Z,29.00
2022-07-29T12:31:06.208Z,29.40
2022-07-29T12:33:36.014Z,29.90
2022-07-29T12:36:07.271Z,29.60
2022-07-29T12:38:38.061Z,29.50
2022-07-29T12:41:05.185Z,30.00
2022-07-29T12:43:32.352Z,30.70
2022-07-29T12:45:59.093Z,31.40
2022-07-29T12:48:35.768Z,31.80
2022-07-29T12:51:03.337Z,31.90
2022-07-29T12:53:30.305Z,32.10
2022-07-29T12:55:57.945Z,32.40
2022-07-29T12:58:28.808Z,32.10
2022-07-29T13:01:17.421Z,32.10
2022-07-29T13:03:57.340Z,31.20
2022-07-29T13:06:45.873Z,30.20
2022-07-29T13:09:17.182Z,30.10
2022-07-29T13:11:48.644Z,30.80
2022-07-29T13:14:32.145Z,31.50
2022-07-29T13:17:14.743Z,32.10
2022-07-29T13:19:45.030Z,32.80
2022-07-29T13:22:16.358Z,33.10
2022-07-29T13:24:53.323Z,33.30
2022-07-29T13:27:21.143Z,33.90
2022-07-29T13:29:48.283Z,33.80
2022-07-29T13:32:15.147Z,34.50
2022-07-29T13:34:41.981Z,34.70
2022-07-29T13:37:08.781Z,35.10
2022-07-29T13:39:35.665Z,34.50
2022-07-29T13:42:02.478Z,34.60
2022-07-29T13:44:29.232Z,35.20
2022-07-29T13:46:56.851Z,34.50
2022-07-29T13:49:23.746Z,33.70
2022-07-29T13:51:50.730Z,32.90
2022-07-29T13:54:17.505Z,32.40
2022-07-29T13:56:44.362Z,32.10
2022-07-29T13:59:13.329Z,32.80
2022-07-29T14:01:42.522Z,33.90
2022-07-29T14:04:10.128Z,34.80
2022-07-29T14:06:40.567Z,35.10
2022-07-29T14:09:09.395Z,35.40
2022-07-29T14:11:36.673Z,35.60
2022-07-29T14:14:03.449Z,35.30
2022-07-29T14:16:30.195Z,34.80
2022-07-29T14:18:57.008Z,35.10
2022-07-29T14:21:23.945Z,35.60
2022-07-29T14:23:53.117Z,35.70
2022-07-29T14:26:21.694Z,34.80
2022-07-29T14:28:51.156Z,34.30
2022-07-29T14:31:18.015Z,33.70
2022-07-29T14:33:46.252Z,33.90
2022-07-29T14:36:16.159Z,33.70
2022-07-29T14:38:42.947Z,33.50
2022-07-29T14:41:09.761Z,33.60
2022-07-29T14:43:36.533Z,33.30
2022-07-29T14:46:08.251Z,33.40
2022-07-29T14:48:36.025Z,33.70
2022-07-29T14:51:04.902Z,34.10
2022-07-29T14:53:32.443Z,34.50
2022-07-29T14:56:10.297Z,34.10
2022-07-29T14:58:51.741Z,33.50
2022-07-29T15:01:18.878Z,32.80
2022-07-29T15:03:45.775Z,32.30
2022-07-29T15:06:12.552Z,32.60
2022-07-29T15:08:39.450Z,33.40
2022-07-29T15:11:06.350Z,33.70
2022-07-29T15:13:33.754Z,33.40
2022-07-29T15:16:00.691Z,33.30
2022-07-29T15:18:27.494Z,33.00
2022-07-29T15:20:54.221Z,32.60
2022-07-29T15:23:21.051Z,32.40
2022-07-29T15:25:47.816Z,32.30
2022-07-29T15:28:14.528Z,32.20
2022-07-29T15:30:41.936Z,32.00
2022-07-29T15:33:10.312Z,31.80
2022-07-29T15:35:40.362Z,31.60
2022-07-29T15:38:07.738Z,31.80
2022-07-29T15:40:34.576Z,32.40
2022-07-29T15:43:06.495Z,32.70
2022-07-29T15:45:41.025Z,33.90
2022-07-29T15:48:08.738Z,34.30
2022-07-29T15:50:35.761Z,34.30
2022-07-29T15:53:02.574Z,33.80
2022-07-29T15:55:29.410Z,33.30
2022-07-29T15:58:00.113Z,32.60
2022-07-29T16:00:27.493Z,32.10
2022-07-29T16:02:54.191Z,31.70
2022-07-29T16:05:20.935Z,31.20
2022-07-29T16:07:47.766Z,30.90
2022-07-29T16:10:14.576Z,30.60
2022-07-29T16:12:41.329Z,30.30
2022-07-29T16:15:10.423Z,30.00
2022-07-29T16:17:38.028Z,29.90
2022-07-29T16:20:06.023Z,29.50
2022-07-29T16:22:32.775Z,29.30
2022-07-29T16:24:59.557Z,29.00
2022-07-29T16:27:35.557Z,28.80
2022-07-29T16:30:06.244Z,28.70
2022-07-29T16:32:33.499Z,28.80
2022-07-29T16:35:02.298Z,29.00
2022-07-29T16:37:35.445Z,29.20
2022-07-29T16:40:06.320Z,30.10
2022-07-29T16:42:47.262Z,30.40
2022-07-29T16:45:15.084Z,30.50
2022-07-29T16:47:42.080Z,30.40
2022-07-29T16:50:08.895Z,30.50
2022-07-29T16:52:36.063Z,30.60
2022-07-29T16:55:02.837Z,30.50
2022-07-29T16:57:29.712Z,30.00
2022-07-29T16:59:56.752Z,29.60
2022-07-29T17:02:24.028Z,29.50
2022-07-29T17:04:50.872Z,29.40
2022-07-29T17:07:17.816Z,29.30
2022-07-29T17:09:44.805Z,29.30
2022-07-29T17:12:11.575Z,29.30
2022-07-29T17:14:38.411Z,29.20
2022-07-29T17:17:13.858Z,29.10
2022-07-29T17:19:43.448Z,29.10
2022-07-29T17:22:17.102Z,29.10
2022-07-29T17:24:46.348Z,28.70
2022-07-29T17:27:13.903Z,28.40
2022-07-29T17:29:41.464Z,28.00
2022-07-29T17:32:09.114Z,27.80
2022-07-29T17:34:36.913Z,27.60
2022-07-29T17:37:04.669Z,27.40
2022-07-29T17:39:31.384Z,27.10
2022-07-29T17:41:58.172Z,26.80
2022-07-29T17:44:24.916Z,26.60
2022-07-29T17:46:51.669Z,26.40
2022-07-29T17:49:18.740Z,26.20
2022-07-29T17:51:46.030Z,26.10
2022-07-29T17:54:13.069Z,26.00
2022-07-29T17:56:40.032Z,25.90
2022-07-29T17:59:09.112Z,25.90
2022-07-29T18:01:36.825Z,25.90
2022-07-29T18:04:03.734Z,25.90
2022-07-29T18:06:30.620Z,25.90
2022-07-29T18:08:57.430Z,25.90
2022-07-29T18:11:24.174Z,26.00
2022-07-29T18:13:50.968Z,26.00
2022-07-29T18:16:18.297Z,26.00
2022-07-29T18:18:45.281Z,25.70
2022-07-29T18:21:12.095Z,25.60
2022-07-29T18:23:38.892Z,25.60
2022-07-29T18:26:05.645Z,25.50
2022-07-29T18:28:32.830Z,25.40
2022-07-29T18:31:00.566Z,25.40
2022-07-29T18:33:27.859Z,25.30
2022-07-29T18:36:06.126Z,25.30
2022-07-29T18:38:39.568Z,25.20
2022-07-29T18:41:06.381Z,25.10
2022-07-29T18:43:33.233Z,25.00
2022-07-29T18:46:00.110Z,25.00
2022-07-29T18:48:27.140Z,24.90
2022-07-29T18:50:54.043Z,24.80
2022-07-29T18:53:20.737Z,24.70
2022-07-29T18:55:47.508Z,24.60
2022-07-29T18:58:14.265Z,24.50
2022-07-29T19:00:41.063Z,24.30
2022-07-29T19:03:08.875Z,24.30
2022-07-29T19:05:35.826Z,24.20
2022-07-29T19:08:02.695Z,24.20
2022-07-29T19:10:29.813Z,24.20
2022-07-29T19:12:58.047Z,24.10
2022-07-29T19:15:24.988Z,24.10
2022-07-29T19:17:51.752Z,23.90
2022-07-29T19:20:18.652Z,23.80
2022-07-29T19:22:45.597Z,23.80
2022-07-29T19:25:12.427Z,23.70
2022-07-29T19:27:39.337Z,23.60
2022-07-29T19:30:08.091Z,23.60
2022-07-29T19:32:35.218Z,23.50
2022-07-29T19:35:20.781Z,23.40
2022-07-29T19:37:47.538Z,23.30
2022-07-29T19:40:16.204Z,23.20
2022-07-29T19:42:43.544Z,23.10
2022-07-29T19:45:11.117Z,23.00
2022-07-29T19:47:38.238Z,22.90
2022-07-29T19:50:05.583Z,22.70
2022-07-29T19:52:32.324Z,22.60
2022-07-29T19:55:00.399Z,22.50
2022-07-29T19:57:29.927Z,22.40
2022-07-29T20:00:08.350Z,22.30
2022-07-29T20:02:38.145Z,22.20
2022-07-29T20:05:05.451Z,22.10
2022-07-29T20:07:32.365Z,22.00
2022-07-29T20:09:59.382Z,21.90
2022-07-29T20:12:26.148Z,21.80
2022-07-29T20:14:54.101Z,21.70
2022-07-29T20:17:22.392Z,21.60
2022-07-29T20:19:49.909Z,21.50
2022-07-29T20:22:20.883Z,21.50
2022-07-29T20:24:48.344Z,21.40
2022-07-29T20:27:15.494Z,21.30
2022-07-29T20:29:42.311Z,21.20
2022-07-29T20:32:09.110Z,21.20
2022-07-29T20:34:35.812Z,21.10
2022-07-29T20:37:02.973Z,21.00
2022-07-29T20:39:30.347Z,21.00
2022-07-29T20:41:57.232Z,20.90
2022-07-29T20:44:24.366Z,20.90
2022-07-29T20:46:51.657Z,20.90
2022-07-29T20:49:18.605Z,20.90
2022-07-29T20:51:45.491Z,20.80
2022-07-29T20:54:12.515Z,20.80
2022-07-29T20:56:39.585Z,20.80
2022-07-29T20:59:06.305Z,20.70
2022-07-29T21:01:33.200Z,20.70
2022-07-29T21:04:01.268Z,20.70
2022-07-29T21:06:27.942Z,20.60
2022-07-29T21:08:57.840Z,20.60
2022-07-29T21:11:44.079Z,20.50
2022-07-29T21:14:37.899Z,20.50
2022-07-29T21:17:07.045Z,20.50
2022-07-29T21:19:34.432Z,20.50
2022-07-29T21:22:01.242Z,20.40
2022-07-29T21:24:28.035Z,20.40
2022-07-29T21:27:20.883Z,20.30
2022-07-29T21:29:48.444Z,20.30
2022-07-29T21:32:30.081Z,20.20
2022-07-29T21:34:57.734Z,20.20
2022-07-29T21:37:24.538Z,20.20
2022-07-29T21:39:51.412Z,20.20
2022-07-29T21:42:18.328Z,20.10
2022-07-29T21:44:45.366Z,20.10
2022-07-29T21:47:12.187Z,20.00
2022-07-29T21:49:39.073Z,20.00
2022-07-29T21:52:06.278Z,20.00
2022-07-29T21:54:34.814Z,20.00
2022-07-29T21:57:01.928Z,19.90
2022-07-29T21:59:29.448Z,19.90
2022-07-29T22:01:56.445Z,19.90
2022-07-29T22:04:23.352Z,19.90
2022-07-29T22:06:50.133Z,20.00
2022-07-29T22:09:17.011Z,20.00
2022-07-29T22:11:43.860Z,20.00
2022-07-29T22:14:10.663Z,20.00
2022-07-29T22:16:37.462Z,20.00
2022-07-29T22:19:04.265Z,20.00
2022-07-29T22:21:31.111Z,20.00
2022-07-29T22:23:58.282Z,20.00
2022-07-29T22:26:25.086Z,19.90
2022-07-29T22:28:51.872Z,19.90
2022-07-29T22:31:18.698Z,19.80
2022-07-29T22:33:45.468Z,19.80
2022-07-29T22:36:12.245Z,19.70
2022-07-29T22:38:39.514Z,19.70
2022-07-29T22:41:06.414Z,19.60
2022-07-29T22:43:33.203Z,19.50
2022-07-29T22:45:59.991Z,19.40
2022-07-29T22:48:26.975Z,19.30
2022-07-29T22:50:53.672Z,19.20
2022-07-29T22:53:20.414Z,19.10
2022-07-29T22:55:47.170Z,19.10
2022-07-29T22:58:13.924Z,19.10
2022-07-29T23:00:41.289Z,19.00
2022-07-29T23:03:07.990Z,19.00
2022-07-29T23:05:34.776Z,19.00
2022-07-29T23:08:01.599Z,18.90
2022-07-29T23:10:28.618Z,19.00
2022-07-29T23:12:55.331Z,18.90
2022-07-29T23:15:23.028Z,18.80
2022-07-29T23:17:49.755Z,18.80
2022-07-29T23:20:16.539Z,18.80
2022-07-29T23:22:43.320Z,18.70
2022-07-29T23:25:10.173Z,18.70
2022-07-29T23:27:36.891Z,18.70
2022-07-29T23:30:04.608Z,18.70
2022-07-29T23:32:31.434Z,18.60
2022-07-29T23:34:58.146Z,18.60
2022-07-29T23:37:26.887Z,18.50
2022-07-29T23:39:54.017Z,18.50
2022-07-29T23:42:20.817Z,18.50
2022-07-29T23:44:47.582Z,18.50
2022-07-29T23:47:14.533Z,18.40
2022-07-29T23:49:41.232Z,18.40
2022-07-29T23:52:08.102Z,18.40
2022-07-29T23:54:35.047Z,18.30
2022-07-29T23:57:02.013Z,18.20
2022-07-29T23:59:28.988Z,18.20
